Time;durP1;ratioP1;P1;durP2;ratioP2;P2;SDS_P1;SDS_P2;PMS_P1;PMS_P2;Temp;Humidity;BMP_temperature;BMP_pressure;BME280_temperature;BME280_humidity;BME280_pressure;Samples;Min_cycle;Max_cycle;Signal;HPM_P1;HPM_P2
2023/08/08 00:01:50;;;;;;;2.80;1.45;;;13.50;99.90;;;;;;5021636;28;20037;-73
2023/08/08 00:04:16;;;;;;;2.17;1.25;;;13.50;99.90;;;;;;5002637;28;20052;-73
2023/08/08 00:06:42;;;;;;;3.03;1.17;;;13.50;99.90;;;;;;5026581;28;20038;-73
2023/08/08 00:09:07;;;;;;;4.57;1.73;;;13.50;99.90;;;;;;5029587;28;20026;-73
2023/08/08 00:11:33;;;;;;;2.97;1.40;;;13.40;99.90;;;;;;5025364;28;20914;-73
2023/08/08 00:13:59;;;;;;;2.92;1.83;;;13.50;99.90;;;;;;5028128;28;20076;-73
2023/08/08 00:16:24;;;;;;;2.80;1.42;;;13.40;99.90;;;;;;5024304;28;20072;-73
2023/08/08 00:18:53;;;;;;;2.10;1.20;;;13.40;99.90;;;;;;5024757;28;20030;-74
2023/08/08 00:21:19;;;;;;;2.78;1.60;;;13.40;99.90;;;;;;5027328;28;20017;-73
2023/08/08 00:23:45;;;;;;;2.97;1.50;;;13.40;99.90;;;;;;5028822;28;20544;-73
2023/08/08 00:26:10;;;;;;;3.25;1.85;;;13.40;99.90;;;;;;5025098;28;20021;-73
2023/08/08 00:28:36;;;;;;;4.22;1.60;;;13.30;99.90;;;;;;5006440;28;20026;-73
2023/08/08 00:31:02;;;;;;;3.55;1.60;;;13.30;99.90;;;;;;5022540;28;20037;-74
2023/08/08 00:33:27;;;;;;;4.60;1.77;;;13.30;99.90;;;;;;5019949;28;20029;-73
2023/08/08 00:35:53;;;;;;;5.82;1.83;;;13.30;99.90;;;;;;5017799;28;20030;-73
2023/08/08 00:38:18;;;;;;;2.63;1.67;;;13.30;99.90;;;;;;5022016;28;20376;-73
2023/08/08 00:40:44;;;;;;;2.55;1.75;;;13.30;99.90;;;;;;5021968;28;20033;-73
2023/08/08 00:43:10;;;;;;;3.90;1.70;;;13.30;99.90;;;;;;5008231;28;20041;-73
2023/08/08 00:45:36;;;;;;;4.60;1.45;;;13.30;99.90;;;;;;5004449;28;20030;-72
2023/08/08 00:48:02;;;;;;;5.47;1.23;;;13.30;99.90;;;;;;5018341;28;20030;-73
2023/08/08 00:50:28;;;;;;;3.33;1.30;;;13.30;99.90;;;;;;5025823;28;20021;-73
2023/08/08 00:52:54;;;;;;;3.17;1.20;;;13.30;99.90;;;;;;5025524;28;20029;-74
2023/08/08 00:55:20;;;;;;;4.05;1.35;;;13.30;99.90;;;;;;5026031;28;20028;-73
2023/08/08 00:57:46;;;;;;;4.50;1.35;;;13.30;99.90;;;;;;5027509;28;20116;-73
2023/08/08 01:00:12;;;;;;;1.98;1.45;;;13.30;99.90;;;;;;5026839;28;20113;-73
2023/08/08 01:02:38;;;;;;;3.08;1.20;;;13.30;99.90;;;;;;5023866;28;20040;-73
2023/08/08 01:05:04;;;;;;;3.70;1.25;;;13.30;99.90;;;;;;5015282;28;20060;-73
2023/08/08 01:07:57;;;;;;;4.63;1.58;;;13.30;99.90;;;;;;5024681;28;20030;-73
2023/08/08 01:10:28;;;;;;;4.18;1.27;;;13.40;99.90;;;;;;5030886;28;20037;-73
2023/08/08 01:12:59;;;;;;;1.70;1.20;;;13.40;99.90;;;;;;5026665;28;20040;-73
2023/08/08 01:15:26;;;;;;;3.58;1.20;;;13.40;99.90;;;;;;5009386;28;20120;-73
2023/08/08 01:17:52;;;;;;;2.88;1.40;;;13.30;99.90;;;;;;5035143;28;20030;-73
2023/08/08 01:20:19;;;;;;;3.65;1.50;;;13.40;99.90;;;;;;5009018;28;20101;-73
2023/08/08 01:23:03;;;;;;;2.53;1.52;;;13.40;99.90;;;;;;5030581;28;20022;-74
2023/08/08 01:25:29;;;;;;;2.75;1.30;;;13.40;99.90;;;;;;5028962;28;20025;-72
2023/08/08 01:27:55;;;;;;;3.67;1.30;;;13.40;99.90;;;;;;5026172;28;20072;-73
2023/08/08 01:30:20;;;;;;;2.33;1.13;;;13.40;99.90;;;;;;5025475;28;20102;-73
2023/08/08 01:32:46;;;;;;;5.68;1.63;;;13.50;99.90;;;;;;5011568;28;20026;-73
2023/08/08 01:35:12;;;;;;;5.22;1.45;;;13.40;99.90;;;;;;5010762;28;20627;-73
2023/08/08 01:38:06;;;;;;;2.15;1.17;;;13.40;99.90;;;;;;5012784;28;20376;-73
2023/08/08 01:40:32;;;;;;;2.50;1.23;;;13.40;99.90;;;;;;5028395;28;20511;-73
2023/08/08 01:42:59;;;;;;;3.00;1.27;;;13.40;99.90;;;;;;5025698;28;20026;-73
2023/08/08 01:45:24;;;;;;;4.53;1.80;;;13.40;99.90;;;;;;5009372;28;20034;-73
2023/08/08 01:47:53;;;;;;;2.70;1.38;;;13.40;99.90;;;;;;5027426;28;20037;-73
2023/08/08 01:50:21;;;;;;;3.35;1.60;;;13.40;99.90;;;;;;5029853;28;20032;-73
2023/08/08 01:52:46;;;;;;;2.28;1.38;;;13.40;99.90;;;;;;5012452;28;20581;-73
2023/08/08 01:55:13;;;;;;;3.28;1.20;;;13.40;99.90;;;;;;5029064;28;20029;-73
2023/08/08 01:57:38;;;;;;;3.45;1.20;;;13.40;99.90;;;;;;5025003;28;20545;-73
2023/08/08 02:00:06;;;;;;;4.72;1.60;;;13.40;99.90;;;;;;5027268;28;20022;-73
2023/08/08 02:02:32;;;;;;;2.17;1.10;;;13.40;99.90;;;;;;5023488;28;20030;-73
2023/08/08 02:04:57;;;;;;;2.70;1.40;;;13.40;99.90;;;;;;5020978;28;20032;-73
2023/08/08 02:07:23;;;;;;;3.08;1.63;;;13.40;99.90;;;;;;5029518;28;20037;-72
2023/08/08 02:09:50;;;;;;;4.53;1.50;;;13.40;99.90;;;;;;5030991;28;20548;-73
2023/08/08 02:12:16;;;;;;;1.52;1.08;;;13.40;99.90;;;;;;5028490;28;20033;-73
2023/08/08 02:14:42;;;;;;;1.70;1.17;;;13.40;99.90;;;;;;5009501;28;20120;-73
2023/08/08 02:17:07;;;;;;;2.58;1.67;;;13.40;99.90;;;;;;5011380;28;20048;-73
2023/08/08 02:19:33;;;;;;;2.35;1.30;;;13.40;99.90;;;;;;5028441;28;20659;-73
2023/08/08 02:21:59;;;;;;;2.75;1.58;;;13.40;99.90;;;;;;5029825;28;20072;-74
2023/08/08 02:24:24;;;;;;;3.60;1.80;;;13.40;99.90;;;;;;5029416;28;20115;-73
2023/08/08 02:26:50;;;;;;;4.15;1.77;;;13.40;99.90;;;;;;5027797;28;20041;-73
2023/08/08 02:29:15;;;;;;;1.95;1.35;;;13.40;99.90;;;;;;5024150;28;20030;-74
2023/08/08 02:31:41;;;;;;;2.47;1.27;;;13.40;99.90;;;;;;5029795;28;20045;-74
2023/08/08 02:34:07;;;;;;;2.72;1.48;;;13.40;99.90;;;;;;5026913;28;20061;-75
2023/08/08 02:36:33;;;;;;;3.05;1.42;;;13.40;99.90;;;;;;5025883;28;20121;-73
2023/08/08 02:38:58;;;;;;;3.20;1.40;;;13.40;99.90;;;;;;5027126;28;20021;-73
2023/08/08 02:41:24;;;;;;;3.00;1.50;;;13.40;99.90;;;;;;5030084;28;20021;-73
2023/08/08 02:43:50;;;;;;;5.00;1.92;;;13.40;99.90;;;;;;5026795;28;20087;-74
2023/08/08 02:46:15;;;;;;;3.13;1.75;;;13.40;99.90;;;;;;5026361;28;20052;-73
2023/08/08 02:48:41;;;;;;;5.00;1.60;;;13.40;99.90;;;;;;5031121;28;20087;-73
2023/08/08 02:51:07;;;;;;;2.60;1.45;;;13.40;99.90;;;;;;5028478;28;20095;-73
2023/08/08 02:53:32;;;;;;;4.68;1.50;;;13.40;99.90;;;;;;5030197;28;20056;-73
2023/08/08 02:55:58;;;;;;;2.20;1.30;;;13.30;99.90;;;;;;5021252;28;20037;-73
2023/08/08 02:58:23;;;;;;;2.17;1.50;;;13.30;99.90;;;;;;5029655;28;20960;-73
2023/08/08 03:00:49;;;;;;;2.05;1.27;;;13.30;99.90;;;;;;5026158;28;20021;-73
2023/08/08 03:03:15;;;;;;;2.15;1.40;;;13.30;99.90;;;;;;5027360;28;20024;-73
2023/08/08 03:05:40;;;;;;;2.78;1.65;;;13.30;99.90;;;;;;5027531;28;20033;-73
2023/08/08 03:08:06;;;;;;;3.67;1.55;;;13.30;99.90;;;;;;5027439;28;20028;-73
2023/08/08 03:10:31;;;;;;;2.70;1.55;;;13.30;99.90;;;;;;5012942;28;20053;-73
2023/08/08 03:12:57;;;;;;;6.80;1.27;;;13.30;99.90;;;;;;5013920;28;20084;-73
2023/08/08 03:15:23;;;;;;;5.45;1.85;;;13.30;99.90;;;;;;5007465;28;20173;-73
2023/08/08 03:17:49;;;;;;;3.30;1.55;;;13.30;99.90;;;;;;5027912;28;20560;-73
2023/08/08 03:20:14;;;;;;;3.88;1.60;;;13.30;99.90;;;;;;5024784;28;20029;-73
2023/08/08 03:22:40;;;;;;;3.40;1.70;;;13.20;99.90;;;;;;5011822;28;20026;-73
2023/08/08 03:25:06;;;;;;;3.13;1.70;;;13.20;99.90;;;;;;5027185;28;20030;-73
2023/08/08 03:27:32;;;;;;;2.90;1.50;;;13.20;99.90;;;;;;5013194;28;20585;-73
2023/08/08 03:29:57;;;;;;;3.20;1.70;;;13.20;99.90;;;;;;5027336;28;20033;-73
2023/08/08 03:32:23;;;;;;;4.40;1.80;;;13.20;99.90;;;;;;5013086;28;20035;-73
2023/08/08 03:34:48;;;;;;;4.88;2.15;;;13.20;99.90;;;;;;5025754;28;20037;-73
2023/08/08 03:37:14;;;;;;;4.22;1.90;;;13.10;99.90;;;;;;5026708;28;20380;-73
2023/08/08 03:39:40;;;;;;;3.13;1.58;;;13.20;99.90;;;;;;5030737;28;20033;-73
2023/08/08 03:42:05;;;;;;;5.28;1.70;;;13.10;99.90;;;;;;5024456;28;20021;-73
2023/08/08 03:44:31;;;;;;;3.92;1.70;;;13.10;99.90;;;;;;5024125;28;21150;-73
2023/08/08 03:46:57;;;;;;;3.08;1.60;;;13.20;99.90;;;;;;5020829;28;20442;-73
2023/08/08 03:49:22;;;;;;;2.88;1.80;;;13.20;99.90;;;;;;5021304;28;20033;-74
2023/08/08 03:51:48;;;;;;;3.80;1.50;;;13.20;99.90;;;;;;5006261;28;20042;-74
2023/08/08 03:54:15;;;;;;;3.83;1.40;;;13.20;99.90;;;;;;5011028;28;20514;-75
2023/08/08 03:56:41;;;;;;;5.60;1.60;;;13.20;99.90;;;;;;5025153;28;20018;-74
2023/08/08 03:59:06;;;;;;;2.72;1.52;;;13.20;99.90;;;;;;5029612;28;20048;-73
2023/08/08 04:01:32;;;;;;;3.80;1.48;;;13.20;99.90;;;;;;5008122;28;20117;-74
2023/08/08 04:03:58;;;;;;;2.85;1.40;;;13.20;99.90;;;;;;5027395;28;20113;-73
2023/08/08 04:06:24;;;;;;;2.15;1.20;;;13.20;99.90;;;;;;5027741;28;20020;-73
2023/08/08 04:08:49;;;;;;;3.92;1.70;;;13.20;99.90;;;;;;5023331;28;20048;-73
2023/08/08 04:11:15;;;;;;;3.40;1.80;;;13.20;99.90;;;;;;5026147;28;20017;-73
2023/08/08 04:13:41;;;;;;;3.25;1.88;;;13.20;99.90;;;;;;5011082;28;20126;-73
2023/08/08 04:16:06;;;;;;;2.45;1.65;;;13.20;99.90;;;;;;5023474;28;20029;-73
2023/08/08 04:18:32;;;;;;;5.38;2.10;;;13.20;99.90;;;;;;5029327;28;20067;-73
2023/08/08 04:20:58;;;;;;;3.53;1.88;;;13.30;99.90;;;;;;5026017;28;20543;-73
2023/08/08 04:23:25;;;;;;;2.63;1.25;;;13.20;99.90;;;;;;5027855;28;20041;-73
2023/08/08 04:25:51;;;;;;;3.38;1.48;;;13.20;99.90;;;;;;5029187;28;20033;-73
2023/08/08 04:28:17;;;;;;;2.92;1.58;;;13.30;99.90;;;;;;5028771;28;20148;-73
2023/08/08 04:30:43;;;;;;;3.28;1.70;;;13.30;99.90;;;;;;5030469;28;20104;-72
2023/08/08 04:33:08;;;;;;;6.18;1.70;;;13.30;99.90;;;;;;5028183;28;20336;-73
2023/08/08 04:35:34;;;;;;;3.90;1.90;;;13.30;99.90;;;;;;5025002;28;20030;-73
2023/08/08 04:38:00;;;;;;;2.78;1.73;;;13.40;99.90;;;;;;5027832;28;20045;-72
2023/08/08 04:40:25;;;;;;;3.38;1.50;;;13.30;99.90;;;;;;5025149;28;20388;-72
2023/08/08 04:42:51;;;;;;;4.03;1.83;;;13.40;99.90;;;;;;5021150;28;20056;-72
2023/08/08 04:45:17;;;;;;;3.85;2.03;;;13.40;99.90;;;;;;5021477;28;20407;-73
2023/08/08 04:47:42;;;;;;;3.70;1.58;;;13.40;99.90;;;;;;5006387;28;20128;-73
2023/08/08 04:50:09;;;;;;;4.07;2.35;;;13.40;99.90;;;;;;5017412;28;20043;-71
2023/08/08 04:52:36;;;;;;;3.22;1.50;;;13.40;99.90;;;;;;5006627;28;20232;-72
2023/08/08 04:55:02;;;;;;;4.00;1.90;;;13.40;99.90;;;;;;5023048;28;21396;-72
2023/08/08 04:57:27;;;;;;;3.63;2.10;;;13.40;99.90;;;;;;5025304;28;20033;-72
2023/08/08 04:59:53;;;;;;;5.25;2.03;;;13.40;99.90;;;;;;5025657;28;20021;-72
2023/08/08 05:02:19;;;;;;;2.97;1.60;;;13.40;99.90;;;;;;5010951;28;20025;-72
2023/08/08 05:04:44;;;;;;;4.53;2.20;;;13.40;99.90;;;;;;5025334;28;20032;-73
2023/08/08 05:07:10;;;;;;;4.53;2.15;;;13.40;99.90;;;;;;5012242;28;20031;-72
2023/08/08 05:09:35;;;;;;;2.25;1.40;;;13.40;99.90;;;;;;5026260;28;20034;-73
2023/08/08 05:12:02;;;;;;;2.75;1.58;;;13.40;99.90;;;;;;5011528;28;20480;-72
2023/08/08 05:14:27;;;;;;;6.03;1.83;;;13.50;99.90;;;;;;5027064;28;20065;-72
2023/08/08 05:16:53;;;;;;;4.43;1.90;;;13.50;99.90;;;;;;5023275;28;20527;-72
2023/08/08 05:19:18;;;;;;;5.45;2.67;;;13.50;99.90;;;;;;5026437;28;20033;-72
2023/08/08 05:21:44;;;;;;;3.53;2.03;;;13.50;99.90;;;;;;5025867;28;20026;-72
2023/08/08 05:24:10;;;;;;;5.00;2.67;;;13.60;99.90;;;;;;5021501;28;20033;-71
2023/08/08 05:26:35;;;;;;;7.45;2.78;;;13.60;99.90;;;;;;5001295;28;20388;-71
2023/08/08 05:29:01;;;;;;;6.32;2.50;;;13.60;99.90;;;;;;5016193;28;20045;-71
2023/08/08 05:31:26;;;;;;;4.05;2.20;;;13.70;99.90;;;;;;5015114;28;20026;-71
2023/08/08 05:33:52;;;;;;;3.20;2.20;;;13.70;99.90;;;;;;5017192;28;20026;-71
2023/08/08 05:36:18;;;;;;;7.13;2.20;;;13.70;99.90;;;;;;5018594;28;20034;-72
2023/08/08 05:38:43;;;;;;;5.30;2.40;;;13.80;99.90;;;;;;5020897;28;20116;-72
2023/08/08 05:41:09;;;;;;;5.43;2.00;;;13.90;99.90;;;;;;5020712;28;20064;-72
2023/08/08 05:43:36;;;;;;;5.47;2.50;;;14.00;99.90;;;;;;5027761;28;20045;-72
2023/08/08 05:46:02;;;;;;;10.18;2.30;;;14.10;99.90;;;;;;5015247;28;20041;-73
2023/08/08 05:48:27;;;;;;;4.28;2.50;;;14.20;99.90;;;;;;5014504;28;20472;-72
2023/08/08 05:50:53;;;;;;;3.92;1.98;;;14.30;99.90;;;;;;5006598;28;20392;-72
2023/08/08 05:53:19;;;;;;;3.70;1.75;;;14.40;99.90;;;;;;5014006;28;20037;-72
2023/08/08 05:55:44;;;;;;;7.20;2.08;;;14.50;99.90;;;;;;5017088;28;20045;-73
2023/08/08 05:58:10;;;;;;;6.60;1.88;;;14.60;99.90;;;;;;5017747;28;20499;-71
2023/08/08 06:00:36;;;;;;;5.35;2.10;;;14.60;99.90;;;;;;5029964;28;20033;-71
2023/08/08 06:03:02;;;;;;;4.55;1.77;;;14.80;99.90;;;;;;5028831;28;20475;-71
2023/08/08 06:05:28;;;;;;;5.38;2.17;;;14.80;99.90;;;;;;5028911;28;20033;-71
2023/08/08 06:07:55;;;;;;;3.28;1.92;;;14.90;99.90;;;;;;5033811;28;20026;-71
2023/08/08 06:10:21;;;;;;;2.25;1.65;;;15.00;99.90;;;;;;5011498;28;20036;-71
2023/08/08 06:12:46;;;;;;;3.03;1.33;;;15.10;99.90;;;;;;5029781;28;20026;-71
2023/08/08 06:15:12;;;;;;;4.10;1.60;;;15.20;99.90;;;;;;5011159;28;22101;-71
2023/08/08 06:17:38;;;;;;;5.18;2.10;;;15.30;99.90;;;;;;5010443;28;20063;-71
2023/08/08 06:20:06;;;;;;;3.88;1.73;;;15.40;99.90;;;;;;5025227;28;20021;-72
2023/08/08 06:22:32;;;;;;;5.22;1.70;;;15.40;99.90;;;;;;5026552;28;20018;-72
2023/08/08 06:24:58;;;;;;;4.82;1.67;;;15.50;99.90;;;;;;5027629;28;20033;-71
2023/08/08 06:27:23;;;;;;;4.47;1.25;;;15.60;99.90;;;;;;5010003;28;20095;-71
2023/08/08 06:29:49;;;;;;;8.73;1.98;;;15.70;99.90;;;;;;5018853;28;20029;-71
2023/08/08 06:32:14;;;;;;;4.68;1.60;;;15.70;99.90;;;;;;5022405;28;20542;-71
2023/08/08 06:34:40;;;;;;;4.32;1.45;;;15.70;99.90;;;;;;5029278;28;20033;-73
2023/08/08 06:37:06;;;;;;;4.30;1.40;;;15.70;99.90;;;;;;5012055;28;20033;-72
2023/08/08 06:39:31;;;;;;;2.17;1.33;;;15.80;99.90;;;;;;5009425;28;20018;-72
2023/08/08 06:41:57;;;;;;;3.60;1.52;;;15.90;99.90;;;;;;5033846;28;20130;-72
2023/08/08 06:44:23;;;;;;;55.83;4.90;;;15.90;99.90;;;;;;5005326;28;20037;-72
2023/08/08 06:46:48;;;;;;;4.05;1.27;;;16.00;99.90;;;;;;5029234;28;20536;-73
2023/08/08 06:49:14;;;;;;;4.68;1.70;;;16.10;99.90;;;;;;5026709;28;20081;-72
2023/08/08 06:51:40;;;;;;;3.40;1.50;;;16.10;99.90;;;;;;5010456;28;20476;-73
2023/08/08 06:54:06;;;;;;;3.65;1.38;;;16.30;99.90;;;;;;5028205;28;20060;-72
2023/08/08 06:56:31;;;;;;;4.18;1.60;;;16.40;99.90;;;;;;5027554;28;20669;-72
2023/08/08 06:58:57;;;;;;;3.10;1.13;;;16.50;99.90;;;;;;5031673;28;20025;-70
2023/08/08 07:01:22;;;;;;;2.33;1.42;;;16.50;99.90;;;;;;5033312;28;20071;-70
2023/08/08 07:03:48;;;;;;;2.95;1.38;;;16.50;99.90;;;;;;5030703;28;20499;-70
2023/08/08 07:06:17;;;;;;;2.70;0.80;;;16.70;99.90;;;;;;5033016;28;20030;-70
2023/08/08 07:08:42;;;;;;;2.92;1.08;;;16.80;99.90;;;;;;5015182;28;20117;-70
2023/08/08 07:11:08;;;;;;;5.75;1.23;;;16.80;99.90;;;;;;5030562;28;20100;-70
2023/08/08 07:13:34;;;;;;;2.10;1.08;;;16.90;99.90;;;;;;5027105;28;20052;-71
2023/08/08 07:16:00;;;;;;;2.75;1.35;;;17.00;99.90;;;;;;5032207;28;20022;-71
2023/08/08 07:18:26;;;;;;;1.73;0.70;;;17.10;99.90;;;;;;5033230;28;20025;-71
2023/08/08 07:20:51;;;;;;;2.35;0.90;;;17.20;99.90;;;;;;5026616;28;20017;-71
2023/08/08 07:23:17;;;;;;;1.95;1.10;;;17.30;99.90;;;;;;5041747;28;20018;-71
2023/08/08 07:25:44;;;;;;;3.03;0.90;;;17.40;99.90;;;;;;5032974;28;20028;-70
2023/08/08 07:28:10;;;;;;;1.35;0.93;;;17.40;99.90;;;;;;5025670;28;20052;-72
2023/08/08 07:30:36;;;;;;;3.05;0.90;;;17.50;99.90;;;;;;5035304;28;20064;-72
2023/08/08 07:33:02;;;;;;;1.50;0.70;;;17.60;99.90;;;;;;5033079;28;20033;-71
2023/08/08 07:35:27;;;;;;;4.13;0.80;;;17.60;99.90;;;;;;5013115;28;20036;-70
2023/08/08 07:37:53;;;;;;;1.90;0.95;;;17.70;99.90;;;;;;5029471;28;20030;-70
2023/08/08 07:40:21;;;;;;;1.30;0.70;;;17.80;99.90;;;;;;5032383;28;20029;-71
2023/08/08 07:42:48;;;;;;;3.83;1.05;;;17.80;99.90;;;;;;5024944;28;20499;-72
2023/08/08 07:45:14;;;;;;;5.72;1.38;;;17.90;99.90;;;;;;5019677;28;20032;-74
2023/08/08 07:47:40;;;;;;;2.25;1.10;;;18.00;99.90;;;;;;5027187;28;20033;-72
2023/08/08 07:50:09;;;;;;;1.67;0.80;;;18.10;99.90;;;;;;5025361;28;20466;-73
2023/08/08 07:52:38;;;;;;;3.35;0.80;;;18.20;99.90;;;;;;5028029;28;20431;-71
2023/08/08 07:55:05;;;;;;;1.40;0.80;;;18.30;99.90;;;;;;5023974;28;20373;-71
2023/08/08 07:57:33;;;;;;;3.58;1.00;;;18.40;99.90;;;;;;5028218;28;20022;-72
2023/08/08 07:59:59;;;;;;;1.35;0.90;;;18.50;99.90;;;;;;5010819;28;20021;-72
2023/08/08 08:02:24;;;;;;;2.50;0.70;;;18.60;99.90;;;;;;5031968;28;20036;-71
2023/08/08 08:04:50;;;;;;;2.53;0.93;;;18.70;99.90;;;;;;5013571;28;20029;-72
2023/08/08 08:07:16;;;;;;;2.28;0.90;;;18.80;99.90;;;;;;5024802;28;20030;-72
2023/08/08 08:09:42;;;;;;;4.78;1.23;;;18.90;99.90;;;;;;5035701;28;20033;-72
2023/08/08 08:12:08;;;;;;;1.38;1.00;;;19.10;99.90;;;;;;5026001;28;20057;-72
2023/08/08 08:14:34;;;;;;;4.13;1.17;;;19.10;99.70;;;;;;5032679;28;20029;-72
2023/08/08 08:17:00;;;;;;;4.18;1.35;;;19.10;99.10;;;;;;5013182;28;20131;-71
2023/08/08 08:19:25;;;;;;;5.68;1.20;;;19.20;99.10;;;;;;5026406;28;20434;-71
2023/08/08 08:21:51;;;;;;;3.22;1.30;;;19.10;99.40;;;;;;5024105;28;20025;-71
2023/08/08 08:24:17;;;;;;;2.15;1.10;;;19.20;99.20;;;;;;5021915;28;20054;-70
2023/08/08 08:26:42;;;;;;;5.13;1.10;;;19.30;98.60;;;;;;5029947;28;20091;-71
2023/08/08 08:29:08;;;;;;;1.63;1.00;;;19.40;98.60;;;;;;5024868;28;20029;-70
2023/08/08 08:31:34;;;;;;;2.83;1.27;;;19.40;98.50;;;;;;5008869;28;20044;-71
2023/08/08 08:33:59;;;;;;;2.72;1.30;;;19.40;98.80;;;;;;5011332;28;20048;-69
2023/08/08 08:36:26;;;;;;;5.60;1.52;;;19.50;99.00;;;;;;5029042;28;20022;-72
2023/08/08 08:38:51;;;;;;;3.42;1.48;;;19.50;98.80;;;;;;5033023;28;20489;-69
2023/08/08 08:41:19;;;;;;;2.42;1.10;;;19.50;98.40;;;;;;5030164;28;20033;-71
2023/08/08 08:43:46;;;;;;;3.35;1.15;;;19.50;98.10;;;;;;5036473;28;20164;-72
2023/08/08 08:46:14;;;;;;;4.30;1.55;;;19.50;97.70;;;;;;5018658;28;20052;-70
2023/08/08 08:48:41;;;;;;;3.13;1.02;;;19.50;97.90;;;;;;5013230;28;20037;-71
2023/08/08 08:51:07;;;;;;;1.88;1.00;;;19.50;97.50;;;;;;5028315;28;20243;-70
2023/08/08 08:53:34;;;;;;;2.88;1.50;;;19.50;97.50;;;;;;5022321;28;20038;-70
2023/08/08 08:56:01;;;;;;;3.00;1.23;;;19.50;97.30;;;;;;5008464;28;20045;-70
2023/08/08 08:58:28;;;;;;;2.30;1.10;;;19.60;97.30;;;;;;5022367;28;20018;-70
2023/08/08 09:00:55;;;;;;;5.00;1.30;;;19.70;97.30;;;;;;5030228;28;20044;-70
2023/08/08 09:03:20;;;;;;;1.60;0.90;;;19.70;97.10;;;;;;5025284;28;20392;-70
2023/08/08 09:05:48;;;;;;;2.40;1.30;;;19.70;96.70;;;;;;5026424;28;20033;-70
2023/08/08 09:08:15;;;;;;;2.40;1.40;;;19.70;96.90;;;;;;5021193;28;20128;-70
2023/08/08 09:10:40;;;;;;;3.55;1.20;;;19.70;96.60;;;;;;5023702;28;20078;-70
2023/08/08 09:13:06;;;;;;;2.28;1.27;;;19.70;96.80;;;;;;5026401;28;20046;-70
2023/08/08 09:15:32;;;;;;;5.10;1.55;;;19.70;96.20;;;;;;5011881;28;20049;-70
2023/08/08 09:17:58;;;;;;;2.13;1.20;;;19.80;96.30;;;;;;5010800;28;20552;-71
2023/08/08 09:20:27;;;;;;;7.18;1.20;;;19.80;95.70;;;;;;5027107;28;20101;-71
2023/08/08 09:22:53;;;;;;;2.47;1.30;;;19.80;95.40;;;;;;5027671;28;20029;-71
2023/08/08 09:25:19;;;;;;;3.00;1.20;;;19.90;95.60;;;;;;5024340;28;20112;-71
2023/08/08 09:27:45;;;;;;;7.32;1.42;;;19.90;95.40;;;;;;5027924;28;20510;-71
2023/08/08 09:30:11;;;;;;;3.05;1.42;;;20.00;95.20;;;;;;5030347;28;20048;-70
2023/08/08 09:32:37;;;;;;;1.50;1.00;;;19.90;94.90;;;;;;5027551;28;20025;-71
2023/08/08 09:35:03;;;;;;;3.63;1.15;;;20.00;94.80;;;;;;5021577;28;20040;-71
2023/08/08 09:37:29;;;;;;;5.53;1.27;;;20.10;94.20;;;;;;5016014;28;20029;-70
2023/08/08 09:39:59;;;;;;;2.25;1.05;;;20.10;93.90;;;;;;5029903;28;20017;-70
2023/08/08 09:42:26;;;;;;;2.80;1.10;;;20.10;93.90;;;;;;5031148;28;20104;-70
2023/08/08 09:44:52;;;;;;;1.85;0.93;;;20.10;93.20;;;;;;5029285;28;20080;-70
2023/08/08 09:47:18;;;;;;;3.70;0.88;;;20.20;92.80;;;;;;5028352;28;20026;-71
2023/08/08 09:49:45;;;;;;;2.17;1.10;;;20.10;92.80;;;;;;5028181;28;20041;-71
2023/08/08 09:52:11;;;;;;;3.25;1.55;;;20.20;92.90;;;;;;5028576;28;20056;-70
2023/08/08 09:54:38;;;;;;;2.95;0.98;;;20.20;93.20;;;;;;5033438;28;20025;-71
2023/08/08 09:57:04;;;;;;;2.88;1.20;;;20.30;93.30;;;;;;5037976;28;20439;-70
2023/08/08 09:59:31;;;;;;;4.38;1.08;;;20.40;92.60;;;;;;5039496;28;20021;-72
2023/08/08 10:01:57;;;;;;;2.97;1.05;;;20.50;92.40;;;;;;5032135;28;20168;-70
2023/08/08 10:04:24;;;;;;;3.03;0.80;;;20.60;92.40;;;;;;5030141;28;20032;-70
2023/08/08 10:06:49;;;;;;;4.13;1.02;;;20.70;92.10;;;;;;5032443;28;20112;-71
2023/08/08 10:09:16;;;;;;;2.22;1.00;;;20.70;91.80;;;;;;5026043;28;20105;-71
2023/08/08 10:11:44;;;;;;;2.63;1.00;;;20.70;91.70;;;;;;5030769;28;20040;-71
2023/08/08 10:14:11;;;;;;;2.80;1.08;;;20.70;91.20;;;;;;5011015;28;20029;-71
2023/08/08 10:16:37;;;;;;;3.20;0.95;;;20.70;90.60;;;;;;5031174;28;20032;-71
2023/08/08 10:19:05;;;;;;;2.33;1.00;;;20.80;90.80;;;;;;5025417;28;20025;-71
2023/08/08 10:21:43;;;;;;;3.42;0.98;;;20.70;91.20;;;;;;5026832;28;20375;-72
2023/08/08 10:24:10;;;;;;;3.25;1.23;;;20.70;91.00;;;;;;5031751;28;20026;-72
2023/08/08 10:26:58;;;;;;;3.45;1.20;;;20.70;90.50;;;;;;5009010;28;20041;-72
2023/08/08 10:29:26;;;;;;;4.78;0.90;;;20.60;90.80;;;;;;5028410;28;20022;-72
2023/08/08 10:32:03;;;;;;;3.00;1.20;;;20.60;90.70;;;;;;5009209;28;20071;-72
2023/08/08 10:34:46;;;;;;;2.67;1.15;;;20.60;90.80;;;;;;5030769;28;20069;-72
2023/08/08 10:37:15;;;;;;;5.00;1.55;;;20.70;90.70;;;;;;5034952;23;20403;-78
2023/08/08 10:39:55;;;;;;;1.27;0.68;;;20.80;90.70;;;;;;5002955;28;20506;-79
2023/08/08 10:42:23;;;;;;;2.80;1.08;;;20.80;90.50;;;;;;5016320;28;20086;-78
2023/08/08 10:44:54;;;;;;;7.60;1.08;;;20.90;90.30;;;;;;5016365;28;20499;-79
2023/08/08 10:47:31;;;;;;;3.65;1.20;;;20.90;90.10;;;;;;5022783;28;20547;-79
2023/08/08 10:50:21;;;;;;;2.50;0.98;;;21.00;89.60;;;;;;5015287;28;20038;-78
2023/08/08 10:52:52;;;;;;;1.27;0.88;;;21.00;88.10;;;;;;5003157;28;20053;-79
2023/08/08 10:55:36;;;;;;;2.40;1.00;;;21.00;88.50;;;;;;5000393;28;20041;-79
2023/08/08 10:58:10;;;;;;;5.07;1.33;;;21.10;89.10;;;;;;5017586;28;20514;-78
2023/08/08 11:00:39;;;;;;;2.55;1.13;;;21.20;88.10;;;;;;5019123;28;20618;-79
2023/08/08 11:03:05;;;;;;;1.52;1.00;;;21.10;87.20;;;;;;5018933;28;20034;-77
2023/08/08 11:05:32;;;;;;;6.38;1.15;;;21.20;87.60;;;;;;5000394;28;20103;-79
2023/08/08 11:07:59;;;;;;;4.30;2.20;;;21.20;87.80;;;;;;5017900;28;20040;-77
2023/08/08 11:10:30;;;;;;;3.33;1.30;;;21.30;88.70;;;;;;5015280;28;20053;-80
2023/08/08 11:13:04;;;;;;;4.68;1.17;;;21.30;88.00;;;;;;5001379;28;20407;-78
2023/08/08 11:15:32;;;;;;;3.53;1.00;;;21.40;86.80;;;;;;5017802;28;20032;-77
2023/08/08 11:17:58;;;;;;;1.75;1.10;;;21.40;86.20;;;;;;5018199;28;20018;-79
2023/08/08 11:20:25;;;;;;;2.38;1.00;;;21.40;86.40;;;;;;4996560;28;20026;-78
2023/08/08 11:22:53;;;;;;;2.15;1.10;;;21.50;86.00;;;;;;5016550;28;20068;-79
2023/08/08 11:25:20;;;;;;;4.28;1.38;;;21.60;85.40;;;;;;5013949;28;20473;-79
2023/08/08 11:27:53;;;;;;;1.52;0.90;;;21.70;84.30;;;;;;5005311;28;20042;-68
2023/08/08 11:30:20;;;;;;;2.03;1.13;;;21.60;84.60;;;;;;5006229;28;20026;-72
2023/08/08 11:32:50;;;;;;;2.25;1.17;;;21.70;85.20;;;;;;5001681;28;20057;-71
2023/08/08 11:35:17;;;;;;;2.60;1.38;;;21.70;85.00;;;;;;4989101;28;20037;-75
2023/08/08 11:37:45;;;;;;;4.60;1.10;;;21.60;84.50;;;;;;5010114;28;20030;-74
2023/08/08 11:40:12;;;;;;;2.63;1.08;;;21.60;83.70;;;;;;5011917;28;20022;-75
2023/08/08 11:42:38;;;;;;;1.80;1.00;;;21.60;83.70;;;;;;4993891;28;20113;-75
2023/08/08 11:45:04;;;;;;;2.25;1.02;;;21.50;83.10;;;;;;5010971;28;20495;-75
2023/08/08 11:47:35;;;;;;;1.85;1.23;;;21.50;82.20;;;;;;5012780;28;20032;-74
2023/08/08 11:50:03;;;;;;;1.40;1.08;;;21.60;81.60;;;;;;5009829;28;20034;-74
2023/08/08 11:52:29;;;;;;;1.70;1.05;;;21.60;82.10;;;;;;4988967;28;20038;-74
2023/08/08 11:54:55;;;;;;;4.53;1.13;;;21.60;82.20;;;;;;5011411;28;20030;-74
2023/08/08 11:57:21;;;;;;;3.25;1.52;;;21.70;82.00;;;;;;5008234;28;20030;-75
2023/08/08 11:59:49;;;;;;;1.83;0.90;;;21.80;82.50;;;;;;4994274;28;20278;-75
2023/08/08 12:02:15;;;;;;;1.75;1.08;;;21.90;81.50;;;;;;5012190;28;20105;-75
2023/08/08 12:04:47;;;;;;;1.42;0.82;;;21.90;81.10;;;;;;4994265;28;20061;-77
2023/08/08 12:07:13;;;;;;;3.45;1.20;;;22.00;80.80;;;;;;5010365;28;20026;-76
2023/08/08 12:09:39;;;;;;;2.53;1.08;;;21.90;81.30;;;;;;5011433;28;20041;-76
2023/08/08 12:12:05;;;;;;;5.97;1.40;;;21.90;80.30;;;;;;5008070;28;20036;-76
2023/08/08 12:14:38;;;;;;;3.67;1.13;;;21.80;80.70;;;;;;5007575;28;20029;-76
2023/08/08 12:17:05;;;;;;;3.38;1.17;;;21.80;80.80;;;;;;4993262;28;20030;-77
2023/08/08 12:19:31;;;;;;;3.03;1.48;;;21.70;79.10;;;;;;5007599;28;20108;-76
2023/08/08 12:21:57;;;;;;;6.72;1.45;;;21.70;77.50;;;;;;5008102;28;20054;-76
2023/08/08 12:24:22;;;;;;;3.47;1.35;;;21.70;77.60;;;;;;4992573;28;20132;-74
2023/08/08 12:26:48;;;;;;;2.10;1.17;;;21.80;77.90;;;;;;5012570;28;20029;-76
2023/08/08 12:29:13;;;;;;;4.10;1.10;;;21.80;79.00;;;;;;5010401;28;20069;-74
2023/08/08 12:31:39;;;;;;;3.30;1.15;;;21.90;78.60;;;;;;5006522;28;20037;-75
2023/08/08 12:34:05;;;;;;;2.00;1.20;;;22.00;78.20;;;;;;4999036;28;20065;-75
2023/08/08 12:36:31;;;;;;;2.75;1.35;;;22.10;77.70;;;;;;4999003;28;20030;-75
2023/08/08 12:38:57;;;;;;;2.28;1.40;;;22.20;76.30;;;;;;4999702;28;20407;-76
2023/08/08 12:41:26;;;;;;;4.53;1.35;;;22.20;75.90;;;;;;5004073;28;20492;-75
2023/08/08 12:43:55;;;;;;;2.65;1.10;;;22.20;75.30;;;;;;5005017;28;20061;-76
2023/08/08 12:46:21;;;;;;;2.35;1.30;;;22.20;75.20;;;;;;5001145;28;20112;-75